sensor_id;sensor_type;location;lat;lon;timestamp;pressure;altitude;pressure_sealevel;temperature;humidity
38912;BME280;28444;48.056;14.408;2023-04-09T00:00:41;98242.19;;;3.90;97.78
38912;BME280;28444;48.056;14.408;2023-04-09T00:03:08;98223.78;;;3.83;98.12
38912;BME280;28444;48.056;14.408;2023-04-09T00:05:38;98228.47;;;3.82;98.24
38912;BME280;28444;48.056;14.408;2023-04-09T00:08:05;98231.19;;;3.77;98.22
38912;BME280;28444;48.056;14.408;2023-04-09T00:10:32;98231.19;;;3.77;98.34
38912;BME280;28444;48.056;14.408;2023-04-09T00:12:59;98232.91;;;3.80;98.15
38912;BME280;28444;48.056;14.408;2023-04-09T00:15:26;98237.56;;;3.85;98.19
38912;BME280;28444;48.056;14.408;2023-04-09T00:17:57;98236.28;;;3.92;97.71
38912;BME280;28444;48.056;14.408;2023-04-09T00:20:24;98234.78;;;3.96;96.86
38912;BME280;28444;48.056;14.408;2023-04-09T00:22:51;98229.13;;;4.00;96.49
38912;BME280;28444;48.056;14.408;2023-04-09T00:25:18;98226.38;;;4.05;96.66
38912;BME280;28444;48.056;14.408;2023-04-09T00:27:45;98222.41;;;4.06;96.68
38912;BME280;28444;48.056;14.408;2023-04-09T00:30:12;98226.88;;;4.04;97.61
38912;BME280;28444;48.056;14.408;2023-04-09T00:32:39;98222.94;;;4.05;97.01
38912;BME280;28444;48.056;14.408;2023-04-09T00:35:06;98225.16;;;4.01;97.01
38912;BME280;28444;48.056;14.408;2023-04-09T00:37:33;98224.50;;;3.89;98.16
38912;BME280;28444;48.056;14.408;2023-04-09T00:40:00;98224.25;;;3.87;99.15
38912;BME280;28444;48.056;14.408;2023-04-09T00:42:33;98225.75;;;3.82;98.64
38912;BME280;28444;48.056;14.408;2023-04-09T00:45:01;98220.84;;;3.81;99.26
38912;BME280;28444;48.056;14.408;2023-04-09T00:47:28;98224.03;;;3.85;99.23
38912;BME280;28444;48.056;14.408;2023-04-09T00:49:56;98218.09;;;3.92;98.83
38912;BME280;28444;48.056;14.408;2023-04-09T00:52:23;98221.34;;;3.85;98.58
38912;BME280;28444;48.056;14.408;2023-04-09T00:54:50;98228.19;;;3.86;98.59
38912;BME280;28444;48.056;14.408;2023-04-09T00:57:18;98217.19;;;3.78;98.42
38912;BME280;28444;48.056;14.408;2023-04-09T00:59:45;98218.38;;;3.77;98.54
38912;BME280;28444;48.056;14.408;2023-04-09T01:02:12;98227.28;;;3.78;98.31
38912;BME280;28444;48.056;14.408;2023-04-09T01:04:40;98214.47;;;3.73;99.00
38912;BME280;28444;48.056;14.408;2023-04-09T01:10:39;98212.81;;;3.64;98.90
38912;BME280;28444;48.056;14.408;2023-04-09T01:13:29;98216.97;;;3.71;99.15
38912;BME280;28444;48.056;14.408;2023-04-09T01:15:59;98215.00;;;3.71;99.17
38912;BME280;28444;48.056;14.408;2023-04-09T01:18:35;98214.47;;;3.73;98.83
38912;BME280;28444;48.056;14.408;2023-04-09T01:21:09;98215.94;;;3.74;98.71
38912;BME280;28444;48.056;14.408;2023-04-09T01:24:20;98220.63;;;3.79;98.71
38912;BME280;28444;48.056;14.408;2023-04-09T01:26:57;98219.38;;;3.80;98.22
38912;BME280;28444;48.056;14.408;2023-04-09T01:29:31;98220.09;;;3.80;98.62
38912;BME280;28444;48.056;14.408;2023-04-09T01:32:00;98225.72;;;3.88;98.44
38912;BME280;28444;48.056;14.408;2023-04-09T01:34:29;98223.00;;;3.88;98.18
38912;BME280;28444;48.056;14.408;2023-04-09T01:36:58;98217.34;;;3.92;97.62
38912;BME280;28444;48.056;14.408;2023-04-09T01:39:26;98223.78;;;3.83;97.95
38912;BME280;28444;48.056;14.408;2023-04-09T01:41:54;98222.53;;;3.90;97.94
38912;BME280;28444;48.056;14.408;2023-04-09T01:44:22;98219.38;;;3.80;97.55
38912;BME280;28444;48.056;14.408;2023-04-09T01:46:50;98221.78;;;3.89;97.18
38912;BME280;28444;48.056;14.408;2023-04-09T01:49:17;98221.81;;;3.83;97.13
38912;BME280;28444;48.056;14.408;2023-04-09T01:51:44;98216.41;;;3.83;97.48
38912;BME280;28444;48.056;14.408;2023-04-09T01:54:12;98218.38;;;3.83;97.29
38912;BME280;28444;48.056;14.408;2023-04-09T01:56:42;98217.38;;;3.86;96.64
38912;BME280;28444;48.056;14.408;2023-04-09T01:59:09;98215.91;;;3.85;97.59
38912;BME280;28444;48.056;14.408;2023-04-09T02:02:04;98215.47;;;3.70;98.25
38912;BME280;28444;48.056;14.408;2023-04-09T02:04:37;98214.94;;;3.82;98.52
38912;BME280;28444;48.056;14.408;2023-04-09T02:07:17;98213.75;;;3.78;98.15
38912;BME280;28444;48.056;14.408;2023-04-09T02:09:48;98217.44;;;3.75;98.19
38912;BME280;28444;48.056;14.408;2023-04-09T02:12:18;98214.00;;;3.74;99.52
38912;BME280;28444;48.056;14.408;2023-04-09T02:14:47;98213.75;;;3.72;99.43
38912;BME280;28444;48.056;14.408;2023-04-09T02:17:17;98216.66;;;3.80;99.47
38912;BME280;28444;48.056;14.408;2023-04-09T02:19:45;98205.13;;;3.74;99.03
38912;BME280;28444;48.056;14.408;2023-04-09T02:22:14;98208.56;;;3.80;99.64
38912;BME280;28444;48.056;14.408;2023-04-09T02:24:45;98209.06;;;3.73;99.61
38912;BME280;28444;48.056;14.408;2023-04-09T02:27:12;98210.25;;;3.83;99.65
38912;BME280;28444;48.056;14.408;2023-04-09T02:29:39;98209.31;;;3.75;99.16
38912;BME280;28444;48.056;14.408;2023-04-09T02:32:06;98216.44;;;3.78;99.61
38912;BME280;28444;48.056;14.408;2023-04-09T02:34:33;98209.81;;;3.73;99.32
38912;BME280;28444;48.056;14.408;2023-04-09T02:36:59;98210.25;;;3.83;98.72
38912;BME280;28444;48.056;14.408;2023-04-09T02:39:26;98211.97;;;3.80;98.68
38912;BME280;28444;48.056;14.408;2023-04-09T02:41:53;98205.34;;;3.81;98.06
38912;BME280;28444;48.056;14.408;2023-04-09T02:44:19;98205.34;;;3.81;97.87
38912;BME280;28444;48.056;14.408;2023-04-09T02:46:46;98212.97;;;3.83;98.57
38912;BME280;28444;48.056;14.408;2023-04-09T02:49:14;98209.22;;;3.92;98.14
38912;BME280;28444;48.056;14.408;2023-04-09T02:51:41;98207.72;;;3.96;97.92
38912;BME280;28444;48.056;14.408;2023-04-09T02:54:08;98211.63;;;4.01;97.71
38912;BME280;28444;48.056;14.408;2023-04-09T02:56:35;98215.31;;;4.03;97.29
38912;BME280;28444;48.056;14.408;2023-04-09T02:59:01;98218.31;;;3.94;97.64
38912;BME280;28444;48.056;14.408;2023-04-09T03:01:28;98212.13;;;3.99;97.68
38912;BME280;28444;48.056;14.408;2023-04-09T03:03:55;98209.41;;;3.99;97.92
38912;BME280;28444;48.056;14.408;2023-04-09T03:06:22;98216.13;;;3.93;98.82
38912;BME280;28444;48.056;14.408;2023-04-09T03:08:49;98218.34;;;3.89;99.13
38912;BME280;28444;48.056;14.408;2023-04-09T03:11:16;98210.91;;;4.00;98.36
38912;BME280;28444;48.056;14.408;2023-04-09T03:13:42;98205.03;;;3.91;98.54
38912;BME280;28444;48.056;14.408;2023-04-09T03:16:09;98209.25;;;3.86;100.00
38912;BME280;28444;48.056;14.408;2023-04-09T03:18:36;98212.44;;;3.84;100.00
38912;BME280;28444;48.056;14.408;2023-04-09T03:21:06;98209.00;;;3.84;100.00
38912;BME280;28444;48.056;14.408;2023-04-09T03:23:34;98205.38;;;3.70;100.00
38912;BME280;28444;48.056;14.408;2023-04-09T03:26:02;98206.31;;;3.84;100.00
38912;BME280;28444;48.056;14.408;2023-04-09T03:28:29;98200.97;;;3.73;100.00
38912;BME280;28444;48.056;14.408;2023-04-09T03:30:56;98205.88;;;3.74;100.00
38912;BME280;28444;48.056;14.408;2023-04-09T03:33:23;98199.03;;;3.62;100.00
38912;BME280;28444;48.056;14.408;2023-04-09T03:35:51;98203.72;;;3.61;100.00
38912;BME280;28444;48.056;14.408;2023-04-09T03:38:18;98201.00;;;3.61;100.00
38912;BME280;28444;48.056;14.408;2023-04-09T03:40:45;98201.75;;;3.62;100.00
38912;BME280;28444;48.056;14.408;2023-04-09T03:43:11;98205.72;;;3.55;100.00
38912;BME280;28444;48.056;14.408;2023-04-09T03:45:38;98202.00;;;3.64;100.00
38912;BME280;28444;48.056;14.408;2023-04-09T03:48:05;98201.25;;;3.64;99.57
38912;BME280;28444;48.056;14.408;2023-04-09T03:50:37;98195.66;;;3.56;100.00
38912;BME280;28444;48.056;14.408;2023-04-09T03:53:04;98193.16;;;3.58;100.00
38912;BME280;28444;48.056;14.408;2023-04-09T03:55:31;98197.06;;;3.62;100.00
38912;BME280;28444;48.056;14.408;2023-04-09T03:57:58;98200.50;;;3.63;100.00
38912;BME280;28444;48.056;14.408;2023-04-09T04:00:24;98196.38;;;3.56;100.00
38912;BME280;28444;48.056;14.408;2023-04-09T04:02:51;98200.78;;;3.59;99.69
38912;BME280;28444;48.056;14.408;2023-04-09T04:05:18;98193.69;;;3.51;100.00
38912;BME280;28444;48.056;14.408;2023-04-09T04:07:47;98193.94;;;3.47;100.00
38912;BME280;28444;48.056;14.408;2023-04-09T04:10:14;98189.31;;;3.42;100.00
38912;BME280;28444;48.056;14.408;2023-04-09T04:12:41;98195.91;;;3.47;100.00
38912;BME280;28444;48.056;14.408;2023-04-09T04:15:08;98195.19;;;3.46;100.00
38912;BME280;28444;48.056;14.408;2023-04-09T04:17:34;98200.84;;;3.43;100.00
38912;BME280;28444;48.056;14.408;2023-04-09T04:20:01;98200.09;;;3.48;100.00
38912;BME280;28444;48.056;14.408;2023-04-09T04:22:28;98200.59;;;3.46;100.00
38912;BME280;28444;48.056;14.408;2023-04-09T04:24:55;98204.28;;;3.43;100.00
38912;BME280;28444;48.056;14.408;2023-04-09T04:27:22;98201.81;;;3.51;100.00
38912;BME280;28444;48.056;14.408;2023-04-09T04:29:49;98202.09;;;3.42;100.00
38912;BME280;28444;48.056;14.408;2023-04-09T04:32:15;98203.78;;;3.45;100.00
38912;BME280;28444;48.056;14.408;2023-04-09T04:34:42;98198.88;;;3.43;99.97
38912;BME280;28444;48.056;14.408;2023-04-09T04:37:09;98205.28;;;3.40;100.00
38912;BME280;28444;48.056;14.408;2023-04-09T04:39:35;98205.28;;;3.40;100.00
38912;BME280;28444;48.056;14.408;2023-04-09T04:42:02;98207.75;;;3.38;100.00
38912;BME280;28444;48.056;14.408;2023-04-09T04:44:29;98208.72;;;3.41;100.00
38912;BME280;28444;48.056;14.408;2023-04-09T04:46:56;98210.22;;;3.42;100.00
38912;BME280;28444;48.056;14.408;2023-04-09T04:49:22;98207.00;;;3.49;100.00
38912;BME280;28444;48.056;14.408;2023-04-09T04:51:49;98213.13;;;3.49;100.00
38912;BME280;28444;48.056;14.408;2023-04-09T04:54:16;98215.56;;;3.53;100.00
38912;BME280;28444;48.056;14.408;2023-04-09T04:56:42;98212.88;;;3.53;100.00
38912;BME280;28444;48.056;14.408;2023-04-09T04:59:09;98211.13;;;3.55;99.93
38912;BME280;28444;48.056;14.408;2023-04-09T05:01:36;98210.91;;;3.53;100.00
38912;BME280;28444;48.056;14.408;2023-04-09T05:04:03;98212.16;;;3.47;100.00
38912;BME280;28444;48.056;14.408;2023-04-09T05:06:30;98214.84;;;3.52;100.00
38912;BME280;28444;48.056;14.408;2023-04-09T05:08:56;98211.88;;;3.56;100.00
38912;BME280;28444;48.056;14.408;2023-04-09T05:11:24;98213.34;;;3.51;100.00
38912;BME280;28444;48.056;14.408;2023-04-09T05:13:50;98211.13;;;3.55;100.00
38912;BME280;28444;48.056;14.408;2023-04-09T05:16:18;98212.34;;;3.54;100.00
38912;BME280;28444;48.056;14.408;2023-04-09T05:18:46;98210.16;;;3.53;100.00
38912;BME280;28444;48.056;14.408;2023-04-09T05:21:13;98214.34;;;3.48;100.00
38912;BME280;28444;48.056;14.408;2023-04-09T05:23:39;98215.59;;;3.47;100.00
38912;BME280;28444;48.056;14.408;2023-04-09T05:26:06;98225.16;;;3.54;100.00
38912;BME280;28444;48.056;14.408;2023-04-09T05:28:33;98227.84;;;3.59;99.53
38912;BME280;28444;48.056;14.408;2023-04-09T05:31:00;98228.06;;;3.61;98.81
38912;BME280;28444;48.056;14.408;2023-04-09T05:33:27;98226.34;;;3.64;99.12
38912;BME280;28444;48.056;14.408;2023-04-09T05:35:53;98228.78;;;3.62;98.85
38912;BME280;28444;48.056;14.408;2023-04-09T05:38:20;98235.97;;;3.59;99.70
38912;BME280;28444;48.056;14.408;2023-04-09T05:40:47;98230.56;;;3.54;99.88
38912;BME280;28444;48.056;14.408;2023-04-09T05:43:14;98236.69;;;3.54;99.62
38912;BME280;28444;48.056;14.408;2023-04-09T05:45:40;98236.44;;;3.64;99.46
38912;BME280;28444;48.056;14.408;2023-04-09T05:48:07;98245.22;;;3.75;98.56
38912;BME280;28444;48.056;14.408;2023-04-09T05:50:34;98241.53;;;3.73;98.84
38912;BME280;28444;48.056;14.408;2023-04-09T05:53:19;98246.22;;;3.78;98.10
38912;BME280;28444;48.056;14.408;2023-04-09T05:55:46;98246.44;;;3.80;98.39
38912;BME280;28444;48.056;14.408;2023-04-09T05:58:16;98239.50;;;3.84;97.94
38912;BME280;28444;48.056;14.408;2023-04-09T06:00:44;98244.19;;;3.90;98.17
38912;BME280;28444;48.056;14.408;2023-04-09T06:03:10;98250.84;;;3.89;97.99
38912;BME280;28444;48.056;14.408;2023-04-09T06:05:40;98245.91;;;3.87;98.37
38912;BME280;28444;48.056;14.408;2023-04-09T06:08:07;98246.63;;;3.88;97.90
38912;BME280;28444;48.056;14.408;2023-04-09T06:10:33;98251.56;;;3.89;97.64
38912;BME280;28444;48.056;14.408;2023-04-09T06:13:00;98252.75;;;3.94;98.44
38912;BME280;28444;48.056;14.408;2023-04-09T06:15:27;98250.56;;;3.92;97.94
38912;BME280;28444;48.056;14.408;2023-04-09T06:17:53;98251.78;;;3.97;98.01
38912;BME280;28444;48.056;14.408;2023-04-09T06:20:24;98252.00;;;3.99;98.21
38912;BME280;28444;48.056;14.408;2023-04-09T06:22:50;98252.22;;;4.01;97.67
38912;BME280;28444;48.056;14.408;2023-04-09T06:25:17;98256.91;;;4.00;97.98
38912;BME280;28444;48.056;14.408;2023-04-09T06:27:44;98265.03;;;4.00;97.81
38912;BME280;28444;48.056;14.408;2023-04-09T06:30:11;98262.78;;;4.04;97.56
38912;BME280;28444;48.056;14.408;2023-04-09T06:32:37;98272.19;;;3.98;97.97
38912;BME280;28444;48.056;14.408;2023-04-09T06:35:19;98263.34;;;3.92;97.82
38912;BME280;28444;48.056;14.408;2023-04-09T06:37:45;98269.19;;;4.07;97.46
38912;BME280;28444;48.056;14.408;2023-04-09T06:40:13;98264.31;;;4.00;98.42
38912;BME280;28444;48.056;14.408;2023-04-09T06:42:40;98267.97;;;4.02;97.96
38912;BME280;28444;48.056;14.408;2023-04-09T06:45:07;98271.63;;;4.10;97.92
38912;BME280;28444;48.056;14.408;2023-04-09T06:47:34;98273.09;;;4.12;98.36
38912;BME280;28444;48.056;14.408;2023-04-09T06:50:02;98274.81;;;4.09;98.07
38912;BME280;28444;48.056;14.408;2023-04-09T06:52:28;98277.78;;;4.11;98.11
38912;BME280;28444;48.056;14.408;2023-04-09T06:54:55;98278.72;;;4.14;98.11
38912;BME280;28444;48.056;14.408;2023-04-09T06:57:22;98283.13;;;4.22;97.87
38912;BME280;28444;48.056;14.408;2023-04-09T06:59:49;98283.59;;;4.21;97.59
38912;BME280;28444;48.056;14.408;2023-04-09T07:02:15;98283.34;;;4.24;97.65
38912;BME280;28444;48.056;14.408;2023-04-09T07:04:42;98285.56;;;4.26;97.36
38912;BME280;28444;48.056;14.408;2023-04-09T07:07:09;98299.59;;;4.24;97.65
38912;BME280;28444;48.056;14.408;2023-04-09T07:09:36;98291.91;;;4.34;97.25
38912;BME280;28444;48.056;14.408;2023-04-09T07:12:03;98290.44;;;4.33;97.04
38912;BME280;28444;48.056;14.408;2023-04-09T07:14:29;98300.03;;;4.34;97.36
38912;BME280;28444;48.056;14.408;2023-04-09T07:16:56;98302.72;;;4.40;97.80
38912;BME280;28444;48.056;14.408;2023-04-09T07:19:23;98291.84;;;4.45;97.63
38912;BME280;28444;48.056;14.408;2023-04-09T07:21:49;98297.25;;;4.45;97.17
38912;BME280;28444;48.056;14.408;2023-04-09T07:24:16;98291.28;;;4.58;96.80
38912;BME280;28444;48.056;14.408;2023-04-09T07:26:43;98299.59;;;4.66;96.82
38912;BME280;28444;48.056;14.408;2023-04-09T07:29:09;98298.66;;;4.57;96.88
38912;BME280;28444;48.056;14.408;2023-04-09T07:31:36;98299.59;;;4.66;96.64
38912;BME280;28444;48.056;14.408;2023-04-09T07:34:03;98299.63;;;4.60;96.02
38912;BME280;28444;48.056;14.408;2023-04-09T07:36:29;98303.59;;;4.53;96.83
38912;BME280;28444;48.056;14.408;2023-04-09T07:38:57;98311.38;;;4.68;97.17
38912;BME280;28444;48.056;14.408;2023-04-09T07:41:24;98313.31;;;4.73;97.21
38912;BME280;28444;48.056;14.408;2023-04-09T07:43:50;98306.91;;;4.76;96.41
38912;BME280;28444;48.056;14.408;2023-04-09T07:46:18;98302.41;;;4.85;96.52
38912;BME280;28444;48.056;14.408;2023-04-09T07:48:46;98309.16;;;5.02;96.74
38912;BME280;28444;48.056;14.408;2023-04-09T07:51:13;98305.25;;;4.98;95.62
38912;BME280;28444;48.056;14.408;2023-04-09T07:53:40;98309.25;;;4.91;96.37
38912;BME280;28444;48.056;14.408;2023-04-09T07:56:07;98312.19;;;4.93;96.68
38912;BME280;28444;48.056;14.408;2023-04-09T07:58:35;98316.22;;;5.11;95.10
38912;BME280;28444;48.056;14.408;2023-04-09T08:01:03;98316.78;;;5.04;95.51
38912;BME280;28444;48.056;14.408;2023-04-09T08:03:30;98318.44;;;5.13;94.63
38912;BME280;28444;48.056;14.408;2023-04-09T08:05:57;98327.06;;;5.11;94.72
38912;BME280;28444;48.056;14.408;2023-04-09T08:08:24;98333.78;;;5.04;95.25
38912;BME280;28444;48.056;14.408;2023-04-09T08:10:51;98331.84;;;4.99;96.50
38912;BME280;28444;48.056;14.408;2023-04-09T08:13:17;98336.00;;;5.06;96.86
38912;BME280;28444;48.056;14.408;2023-04-09T08:15:44;98331.59;;;4.97;96.36
38912;BME280;28444;48.056;14.408;2023-04-09T08:18:11;98335.81;;;4.98;96.45
38912;BME280;28444;48.056;14.408;2023-04-09T08:20:38;98331.66;;;4.92;96.46
38912;BME280;28444;48.056;14.408;2023-04-09T08:23:11;98331.66;;;4.92;96.63
38912;BME280;28444;48.056;14.408;2023-04-09T08:25:38;98335.63;;;4.91;97.38
38912;BME280;28444;48.056;14.408;2023-04-09T08:28:04;98338.28;;;4.96;97.12
38912;BME280;28444;48.056;14.408;2023-04-09T08:30:31;98334.38;;;4.92;97.35
38912;BME280;28444;48.056;14.408;2023-04-09T08:33:00;98341.78;;;4.91;96.84
38912;BME280;28444;48.056;14.408;2023-04-09T08:35:29;98345.75;;;4.90;97.35
38912;BME280;28444;48.056;14.408;2023-04-09T08:37:57;98345.16;;;4.97;96.92
38912;BME280;28444;48.056;14.408;2023-04-09T08:40:24;98347.41;;;4.93;97.24
38912;BME280;28444;48.056;14.408;2023-04-09T08:42:54;98349.41;;;4.93;97.65
38912;BME280;28444;48.056;14.408;2023-04-09T08:45:24;98341.50;;;4.95;97.80
38912;BME280;28444;48.056;14.408;2023-04-09T08:47:51;98351.84;;;4.96;98.05
38912;BME280;28444;48.056;14.408;2023-04-09T08:50:18;98353.56;;;4.94;97.19
38912;BME280;28444;48.056;14.408;2023-04-09T08:52:45;98355.31;;;4.91;97.53
38912;BME280;28444;48.056;14.408;2023-04-09T08:55:13;98363.41;;;4.97;97.72
38912;BME280;28444;48.056;14.408;2023-04-09T08:57:40;98357.25;;;4.96;96.98
38912;BME280;28444;48.056;14.408;2023-04-09T09:00:07;98358.78;;;4.92;96.60
38912;BME280;28444;48.056;14.408;2023-04-09T09:02:34;98367.88;;;4.94;97.09
38912;BME280;28444;48.056;14.408;2023-04-09T09:05:01;98359.94;;;5.02;97.75
38912;BME280;28444;48.056;14.408;2023-04-09T09:07:28;98359.69;;;5.00;97.77
38912;BME280;28444;48.056;14.408;2023-04-09T09:09:59;98364.28;;;5.11;96.83
38912;BME280;28444;48.056;14.408;2023-04-09T09:12:40;98364.47;;;5.18;96.89
38912;BME280;28444;48.056;14.408;2023-04-09T09:15:27;98369.63;;;5.22;96.30
38912;BME280;28444;48.056;14.408;2023-04-09T09:17:58;98369.53;;;5.33;96.09
38912;BME280;28444;48.056;14.408;2023-04-09T09:20:25;98372.47;;;5.35;96.19
38912;BME280;28444;48.056;14.408;2023-04-09T09:22:54;98371.75;;;5.35;95.97
38912;BME280;28444;48.056;14.408;2023-04-09T09:25:21;98374.13;;;5.44;95.78
38912;BME280;28444;48.056;14.408;2023-04-09T09:27:53;98370.84;;;5.51;95.62
38912;BME280;28444;48.056;14.408;2023-04-09T09:30:24;98371.53;;;5.57;95.23
38912;BME280;28444;48.056;14.408;2023-04-09T09:33:08;98372.59;;;5.73;95.05
38912;BME280;28444;48.056;14.408;2023-04-09T09:35:52;98372.38;;;5.71;94.14
38912;BME280;28444;48.056;14.408;2023-04-09T09:38:23;98375.44;;;5.86;94.03
38912;BME280;28444;48.056;14.408;2023-04-09T09:40:49;98377.34;;;5.91;93.10
38912;BME280;28444;48.056;14.408;2023-04-09T09:43:17;98374.63;;;5.91;93.98
38912;BME280;28444;48.056;14.408;2023-04-09T09:45:46;98380.31;;;5.93;93.37
38912;BME280;28444;48.056;14.408;2023-04-09T09:48:13;98371.81;;;6.02;93.29
38912;BME280;28444;48.056;14.408;2023-04-09T09:50:41;98374.72;;;6.10;93.33
38912;BME280;28444;48.056;14.408;2023-04-09T09:53:16;98372.34;;;6.20;92.40
38912;BME280;28444;48.056;14.408;2023-04-09T09:55:48;98371.72;;;6.14;91.49
38912;BME280;28444;48.056;14.408;2023-04-09T09:58:22;98377.56;;;6.18;92.79
38912;BME280;28444;48.056;14.408;2023-04-09T10:00:51;98370.97;;;6.32;91.96
38912;BME280;28444;48.056;14.408;2023-04-09T10:03:25;98367.28;;;6.48;91.18
38912;BME280;28444;48.056;14.408;2023-04-09T10:05:53;98366.84;;;6.63;90.41
38912;BME280;28444;48.056;14.408;2023-04-09T10:08:20;98370.91;;;6.75;89.75
38912;BME280;28444;48.056;14.408;2023-04-09T10:10:49;98365.84;;;6.98;87.67
38912;BME280;28444;48.056;14.408;2023-04-09T10:13:40;98363.06;;;6.85;88.51
38912;BME280;28444;48.056;14.408;2023-04-09T10:16:09;98367.53;;;7.02;87.93
38912;BME280;28444;48.056;14.408;2023-04-09T10:18:36;98367.41;;;6.94;87.19
38912;BME280;28444;48.056;14.408;2023-04-09T10:21:28;98370.38;;;6.77;89.37
38912;BME280;28444;48.056;14.408;2023-04-09T10:23:56;98370.84;;;6.94;88.80
38912;BME280;28444;48.056;14.408;2023-04-09T10:26:25;98368.63;;;7.12;87.04
38912;BME280;28444;48.056;14.408;2023-04-09T10:29:06;98369.66;;;7.22;87.23
38912;BME280;28444;48.056;14.408;2023-04-09T10:31:52;98364.84;;;7.15;87.26
38912;BME280;28444;48.056;14.408;2023-04-09T10:34:26;98364.56;;;7.32;85.45
38912;BME280;28444;48.056;14.408;2023-04-09T10:36:58;98360.91;;;7.29;86.64
38912;BME280;28444;48.056;14.408;2023-04-09T10:39:26;98357.31;;;7.21;85.60
38912;BME280;28444;48.056;14.408;2023-04-09T10:41:55;98357.84;;;7.19;86.89
38912;BME280;28444;48.056;14.408;2023-04-09T10:44:26;98355.63;;;7.05;86.58
38912;BME280;28444;48.056;14.408;2023-04-09T10:46:54;98357.25;;;6.94;89.10
38912;BME280;28444;48.056;14.408;2023-04-09T10:49:25;98368.25;;;7.02;88.25
38912;BME280;28444;48.056;14.408;2023-04-09T10:52:06;98360.19;;;6.96;87.37
38912;BME280;28444;48.056;14.408;2023-04-09T10:54:41;98365.22;;;6.73;87.87
38912;BME280;28444;48.056;14.408;2023-04-09T10:57:21;98366.97;;;6.71;89.71
38912;BME280;28444;48.056;14.408;2023-04-09T10:59:51;98362.28;;;6.71;86.14
38912;BME280;28444;48.056;14.408;2023-04-09T11:03:23;98367.44;;;6.56;87.03
38912;BME280;28444;48.056;14.408;2023-04-09T11:05:41;98362.81;;;6.70;87.05
38912;BME280;28444;48.056;14.408;2023-04-09T11:08:10;98352.94;;;6.86;86.49
38912;BME280;28444;48.056;14.408;2023-04-09T11:10:40;98351.09;;;6.94;85.45
38912;BME280;28444;48.056;14.408;2023-04-09T11:13:14;98348.22;;;7.18;84.85
38912;BME280;28444;48.056;14.408;2023-04-09T11:15:43;98358.19;;;7.29;84.12
38912;BME280;28444;48.056;14.408;2023-04-09T11:18:25;98350.78;;;7.43;82.56
38912;BME280;28444;48.056;14.408;2023-04-09T11:20:56;98341.88;;;7.42;83.13
38912;BME280;28444;48.056;14.408;2023-04-09T11:23:24;98347.63;;;7.39;83.00
38912;BME280;28444;48.056;14.408;2023-04-09T11:25:52;98336.22;;;7.40;82.33
38912;BME280;28444;48.056;14.408;2023-04-09T11:28:19;98338.50;;;7.23;83.31
38912;BME280;28444;48.056;14.408;2023-04-09T11:30:46;98336.81;;;7.20;84.49
38912;BME280;28444;48.056;14.408;2023-04-09T11:33:15;98336.28;;;7.21;84.50
38912;BME280;28444;48.056;14.408;2023-04-09T11:35:45;98339.25;;;7.37;83.30
38912;BME280;28444;48.056;14.408;2023-04-09T11:38:12;98334.09;;;7.33;84.31
38912;BME280;28444;48.056;14.408;2023-04-09T11:40:42;98343.66;;;7.53;85.05
38912;BME280;28444;48.056;14.408;2023-04-09T11:43:14;98340.81;;;7.32;83.39
38912;BME280;28444;48.056;14.408;2023-04-09T11:45:42;98338.31;;;7.34;85.04
38912;BME280;28444;48.056;14.408;2023-04-09T11:48:09;98345.88;;;7.41;84.63
38912;BME280;28444;48.056;14.408;2023-04-09T11:50:37;98340.94;;;7.53;84.86
38912;BME280;28444;48.056;14.408;2023-04-09T11:53:17;98335.41;;;7.45;83.55
38912;BME280;28444;48.056;14.408;2023-04-09T11:55:47;98336.75;;;7.39;83.64
38912;BME280;28444;48.056;14.408;2023-04-09T11:58:15;98334.88;;;7.34;84.46
38912;BME280;28444;48.056;14.408;2023-04-09T12:00:42;98338.09;;;7.59;83.28
38912;BME280;28444;48.056;14.408;2023-04-09T12:03:09;98343.97;;;8.03;82.39
38912;BME280;28444;48.056;14.408;2023-04-09T12:05:36;98341.72;;;8.28;81.09
38912;BME280;28444;48.056;14.408;2023-04-09T12:08:07;98343.28;;;8.50;79.53
38912;BME280;28444;48.056;14.408;2023-04-09T12:10:36;98340.34;;;8.48;79.21
38912;BME280;28444;48.056;14.408;2023-04-09T12:13:05;98340.78;;;8.73;79.02
38912;BME280;28444;48.056;14.408;2023-04-09T12:15:37;98338.19;;;8.88;78.33
38912;BME280;28444;48.056;14.408;2023-04-09T12:18:07;98330.03;;;9.09;75.48
38912;BME280;28444;48.056;14.408;2023-04-09T12:20:39;98333.75;;;8.98;76.74
38912;BME280;28444;48.056;14.408;2023-04-09T12:23:08;98335.06;;;8.84;77.16
38912;BME280;28444;48.056;14.408;2023-04-09T12:25:40;98339.47;;;8.87;75.68
38912;BME280;28444;48.056;14.408;2023-04-09T12:28:09;98333.28;;;8.86;75.49
38912;BME280;28444;48.056;14.408;2023-04-09T12:30:36;98334.38;;;8.70;74.33
38912;BME280;28444;48.056;14.408;2023-04-09T12:33:03;98337.28;;;8.51;75.82
38912;BME280;28444;48.056;14.408;2023-04-09T12:35:30;98333.03;;;8.29;75.85
38912;BME280;28444;48.056;14.408;2023-04-09T12:37:57;98339.34;;;8.11;76.61
38912;BME280;28444;48.056;14.408;2023-04-09T12:40:25;98340.63;;;7.96;77.62
38912;BME280;28444;48.056;14.408;2023-04-09T12:42:52;98331.41;;;8.00;76.85
38912;BME280;28444;48.056;14.408;2023-04-09T12:45:19;98328.06;;;8.07;77.34
38912;BME280;28444;48.056;14.408;2023-04-09T12:47:47;98328.88;;;8.02;77.46
38912;BME280;28444;48.056;14.408;2023-04-09T12:50:14;98328.56;;;8.05;76.42
38912;BME280;28444;48.056;14.408;2023-04-09T12:52:42;98321.41;;;8.15;75.56
38912;BME280;28444;48.056;14.408;2023-04-09T12:55:10;98324.31;;;8.31;74.47
38912;BME280;28444;48.056;14.408;2023-04-09T12:57:38;98320.75;;;8.36;74.65
38912;BME280;28444;48.056;14.408;2023-04-09T13:00:06;98315.09;;;8.47;73.70
38912;BME280;28444;48.056;14.408;2023-04-09T13:02:34;98324.59;;;8.54;73.58
38912;BME280;28444;48.056;14.408;2023-04-09T13:05:01;98323.53;;;8.57;73.88
38912;BME280;28444;48.056;14.408;2023-04-09T13:07:28;98323.09;;;8.66;73.29
38912;BME280;28444;48.056;14.408;2023-04-09T13:09:56;98320.03;;;8.70;72.79